createdAt,value
2022-09-15T00:00:28.832Z,15.00
2022-09-15T00:03:20.577Z,14.76
2022-09-15T00:05:51.951Z,14.82
2022-09-15T00:08:23.412Z,14.87
2022-09-15T00:11:00.178Z,14.82
2022-09-15T00:13:31.877Z,14.78
2022-09-15T00:16:02.585Z,14.77
2022-09-15T00:18:34.535Z,14.74
2022-09-15T00:21:09.356Z,14.62
2022-09-15T00:23:43.323Z,14.57
2022-09-15T00:26:19.229Z,14.53
2022-09-15T00:28:51.985Z,14.62
2022-09-15T00:31:25.825Z,14.54
2022-09-15T00:33:58.863Z,14.53
2022-09-15T00:36:30.366Z,14.37
2022-09-15T00:39:05.139Z,14.48
2022-09-15T00:41:38.872Z,14.11
2022-09-15T00:44:45.895Z,14.12
2022-09-15T00:47:20.180Z,13.88
2022-09-15T00:49:58.978Z,13.87
2022-09-15T00:52:35.489Z,14.16
2022-09-15T00:55:10.612Z,14.14
2022-09-15T00:57:51.559Z,14.16
2022-09-15T01:00:27.546Z,14.21
2022-09-15T01:03:00.395Z,14.22
2022-09-15T01:05:35.529Z,14.16
2022-09-15T01:08:10.173Z,14.16
2022-09-15T01:10:45.248Z,14.07
2022-09-15T01:13:19.138Z,14.09
2022-09-15T01:16:01.847Z,14.03
2022-09-15T01:18:47.411Z,14.05
2022-09-15T01:21:28.346Z,14.05
2022-09-15T01:24:45.111Z,14.01
2022-09-15T01:27:42.251Z,13.97
2022-09-15T01:30:22.900Z,13.50
2022-09-15T01:33:05.643Z,13.75
2022-09-15T01:35:56.029Z,13.54
2022-09-15T01:38:37.470Z,13.74
2022-09-15T01:41:12.632Z,13.77
2022-09-15T01:43:51.876Z,13.79
2022-09-15T01:46:29.467Z,13.78
2022-09-15T01:49:06.677Z,13.80
2022-09-15T01:51:43.426Z,13.81
2022-09-15T01:54:17.321Z,13.70
2022-09-15T01:56:49.204Z,13.73
2022-09-15T01:59:21.521Z,13.56
2022-09-15T02:02:02.591Z,13.74
2022-09-15T02:04:44.083Z,13.70
2022-09-15T02:07:24.403Z,13.47
2022-09-15T02:10:05.012Z,13.25
2022-09-15T02:12:44.210Z,13.28
2022-09-15T02:15:22.014Z,13.69
2022-09-15T02:17:58.263Z,13.75
2022-09-15T02:20:39.221Z,13.16
2022-09-15T02:23:22.941Z,13.10
2022-09-15T02:25:58.523Z,13.47
2022-09-15T02:31:36.024Z,13.71
2022-09-15T02:34:15.541Z,13.77
2022-09-15T02:36:49.671Z,13.39
2022-09-15T02:39:27.924Z,13.11
2022-09-15T02:42:01.235Z,13.46
2022-09-15T02:44:33.785Z,12.96
2022-09-15T02:47:06.320Z,12.90
2022-09-15T02:49:41.069Z,13.07
2022-09-15T02:52:12.978Z,13.06
2022-09-15T02:54:45.015Z,12.83
2022-09-15T02:57:17.106Z,13.32
2022-09-15T03:00:01.476Z,13.36
2022-09-15T03:02:33.357Z,13.36
2022-09-15T03:05:09.174Z,13.47
2022-09-15T03:07:41.427Z,13.30
2022-09-15T03:10:15.136Z,13.44
2022-09-15T03:12:49.656Z,13.43
2022-09-15T03:15:24.295Z,13.16
2022-09-15T03:17:57.043Z,13.21
2022-09-15T03:20:31.889Z,13.05
2022-09-15T03:23:03.630Z,13.22
2022-09-15T03:25:35.588Z,13.33
2022-09-15T09:19:50.235Z,16.43
2022-09-15T09:22:42.176Z,16.86
2022-09-15T09:25:27.257Z,16.95
2022-09-15T09:28:09.398Z,17.21
2022-09-15T09:30:43.866Z,17.18
2022-09-15T09:33:31.985Z,16.97
2022-09-15T09:36:07.819Z,16.96
2022-09-15T09:39:05.782Z,17.23
2022-09-15T09:41:42.658Z,17.56
2022-09-15T09:44:18.562Z,18.21
2022-09-15T09:46:52.083Z,18.14
2022-09-15T09:49:27.529Z,18.35
2022-09-15T09:52:05.074Z,17.93
2022-09-15T09:54:45.738Z,17.73
2022-09-15T09:57:31.354Z,17.87
2022-09-15T10:00:04.474Z,18.49
2022-09-15T10:02:50.725Z,18.89
2022-09-15T10:05:24.240Z,19.25
2022-09-15T10:08:06.517Z,19.49
2022-09-15T10:10:39.878Z,19.32
2022-09-15T10:13:15.929Z,19.42
2022-09-15T10:15:56.814Z,19.56
2022-09-15T10:18:34.531Z,18.44
2022-09-15T10:21:09.445Z,18.37
2022-09-15T10:23:45.092Z,18.18
2022-09-15T10:26:35.479Z,18.32
2022-09-15T10:29:16.704Z,17.84
2022-09-15T10:31:50.181Z,18.15
2022-09-15T10:34:30.762Z,18.22
2022-09-15T10:37:11.827Z,17.74
2022-09-15T10:39:55.408Z,18.72
2022-09-15T10:42:47.351Z,19.16
2022-09-15T10:45:35.890Z,19.90
2022-09-15T10:48:34.906Z,19.36
2022-09-15T10:51:20.019Z,18.66
2022-09-15T10:54:18.088Z,18.63
2022-09-15T10:56:59.916Z,19.11
2022-09-15T10:59:48.182Z,18.03
2022-09-15T11:02:38.883Z,18.02
2022-09-15T11:05:32.845Z,18.38
2022-09-15T11:08:20.322Z,17.74
2022-09-15T11:11:02.041Z,17.81
2022-09-15T11:13:50.962Z,17.90
2022-09-15T11:16:39.406Z,18.29
2022-09-15T11:19:28.280Z,17.70
2022-09-15T11:22:07.162Z,18.17
2022-09-15T11:24:46.809Z,18.13
2022-09-15T11:27:25.009Z,18.05
2022-09-15T11:30:13.439Z,18.41
2022-09-15T11:32:52.938Z,18.68
2022-09-15T11:35:45.761Z,19.57
2022-09-15T11:38:30.327Z,19.37
2022-09-15T11:41:18.119Z,19.18
2022-09-15T11:44:28.361Z,18.86
2022-09-15T11:47:18.046Z,18.21
2022-09-15T11:49:57.092Z,18.16
2022-09-15T11:52:50.121Z,18.09
2022-09-15T11:55:30.483Z,17.63
2022-09-15T11:58:22.143Z,17.85
2022-09-15T12:01:00.291Z,18.05
2022-09-15T12:03:41.486Z,18.13
2022-09-15T12:06:20.360Z,18.35
2022-09-15T12:09:01.283Z,18.15
2022-09-15T12:11:39.200Z,18.14
2022-09-15T12:14:18.123Z,17.95
2022-09-15T12:16:52.285Z,18.29
2022-09-15T12:19:45.723Z,18.49
2022-09-15T12:22:25.247Z,17.96
2022-09-15T12:25:04.928Z,17.70
2022-09-15T12:27:37.962Z,18.25
2022-09-15T12:30:42.958Z,17.99
2022-09-15T12:33:45.411Z,18.01
2022-09-15T12:36:42.443Z,18.17
2022-09-15T12:39:27.622Z,17.96
2022-09-15T12:42:11.604Z,18.62
2022-09-15T12:44:48.287Z,18.53
2022-09-15T12:47:39.960Z,18.33
2022-09-15T12:50:28.440Z,18.24
2022-09-15T12:53:05.886Z,17.64
2022-09-15T12:55:40.209Z,18.30
2022-09-15T12:58:19.239Z,18.52
2022-09-15T13:01:17.928Z,18.16
2022-09-15T13:04:13.520Z,18.42
2022-09-15T13:07:21.317Z,19.02
2022-09-15T13:10:19.083Z,18.37
2022-09-15T13:12:58.038Z,18.57
2022-09-15T13:15:32.508Z,18.45
2022-09-15T13:18:09.798Z,18.71
2022-09-15T13:20:47.097Z,18.51
2022-09-15T13:23:23.848Z,18.55
2022-09-15T13:26:03.318Z,18.76
2022-09-15T13:28:36.678Z,18.93
2022-09-15T13:31:24.018Z,18.63
2022-09-15T13:40:45.728Z,18.10
2022-09-15T13:43:49.246Z,18.58
2022-09-15T13:46:36.508Z,18.16
2022-09-15T13:49:33.312Z,18.19
2022-09-15T13:52:16.262Z,18.60
2022-09-15T13:55:13.670Z,18.64
2022-09-15T14:00:59.274Z,18.34
2022-09-15T14:03:40.067Z,18.07
2022-09-15T14:06:18.597Z,18.18
2022-09-15T14:08:55.072Z,17.99
2022-09-15T14:11:33.803Z,17.99
2022-09-15T14:14:08.434Z,17.48
2022-09-15T14:16:43.727Z,17.66
2022-09-15T14:19:41.878Z,17.83
2022-09-15T14:22:29.886Z,17.65
2022-09-15T14:25:07.911Z,17.61
2022-09-15T14:27:46.792Z,17.63
2022-09-15T14:30:24.877Z,17.51
2022-09-15T14:33:02.755Z,17.61
2022-09-15T14:35:40.151Z,17.86
2022-09-15T14:38:24.242Z,17.90
2022-09-15T14:41:00.269Z,17.77
2022-09-15T14:43:36.547Z,17.84
2022-09-15T14:46:16.017Z,18.15
2022-09-15T14:48:50.917Z,17.90
2022-09-15T14:51:29.105Z,17.82
2022-09-15T14:54:04.315Z,17.74
2022-09-15T14:56:40.106Z,17.74
2022-09-15T14:59:18.588Z,17.83
2022-09-15T15:02:00.311Z,17.95
2022-09-15T15:05:01.265Z,17.50
2022-09-15T15:07:41.513Z,17.87
2022-09-15T15:10:20.586Z,18.26
2022-09-15T15:12:56.470Z,17.62
2022-09-15T15:15:29.347Z,17.38
2022-09-15T15:18:02.283Z,17.59
2022-09-15T15:20:37.308Z,17.38
2022-09-15T15:23:18.784Z,17.61
2022-09-15T15:25:51.673Z,17.47
2022-09-15T15:28:35.510Z,17.39
2022-09-15T15:31:28.154Z,17.70
2022-09-15T15:34:05.867Z,16.91
2022-09-15T15:36:41.788Z,16.98
2022-09-15T15:39:27.954Z,16.53
2022-09-15T15:42:05.905Z,16.28
2022-09-15T15:44:38.826Z,16.63
2022-09-15T15:47:29.522Z,16.45
2022-09-15T15:50:13.923Z,16.64
2022-09-15T15:52:50.223Z,16.89
2022-09-15T15:55:25.587Z,16.47
2022-09-15T15:57:58.911Z,15.77
2022-09-15T16:00:41.720Z,15.44
2022-09-15T16:03:14.820Z,15.38
2022-09-15T16:05:50.344Z,15.51
2022-09-15T16:08:30.667Z,15.50
2022-09-15T16:11:06.062Z,15.47
2022-09-15T16:13:38.823Z,15.73
2022-09-15T16:16:17.828Z,15.74
2022-09-15T16:18:50.863Z,15.83
2022-09-15T16:21:26.663Z,15.27
2022-09-15T16:24:01.743Z,15.41
2022-09-15T16:26:35.990Z,15.38
2022-09-15T16:29:08.865Z,15.50
2022-09-15T16:31:43.184Z,15.50
2022-09-15T16:34:20.343Z,15.67
2022-09-15T16:36:53.383Z,15.65
2022-09-15T16:39:28.671Z,15.27
2022-09-15T16:42:01.598Z,15.24
2022-09-15T16:44:33.863Z,15.20
2022-09-15T16:47:07.742Z,15.01
2022-09-15T16:49:40.661Z,15.19
2022-09-15T16:52:17.461Z,15.20
2022-09-15T16:54:52.631Z,15.10
2022-09-15T16:57:25.541Z,15.18
2022-09-15T16:59:58.149Z,15.17
2022-09-15T17:02:31.063Z,15.33
2022-09-15T17:05:03.501Z,14.84
2022-09-15T17:07:36.461Z,15.11
2022-09-15T17:10:12.710Z,15.20
2022-09-15T17:12:45.982Z,14.79
2022-09-15T17:15:28.702Z,14.67
2022-09-15T17:18:01.556Z,14.79
2022-09-15T17:20:41.935Z,14.74
2022-09-15T17:23:23.807Z,14.83
2022-09-15T17:26:00.397Z,14.91
2022-09-15T17:28:34.657Z,14.83
2022-09-15T17:31:10.032Z,15.08
2022-09-15T17:33:42.690Z,14.78
2022-09-15T17:36:15.203Z,14.52
2022-09-15T17:38:49.303Z,14.44
2022-09-15T17:41:36.680Z,14.60
2022-09-15T17:44:12.499Z,14.71
2022-09-15T17:46:44.565Z,14.49
2022-09-15T17:49:17.188Z,14.42
2022-09-15T17:51:49.285Z,14.17
2022-09-15T17:54:21.879Z,14.18
2022-09-15T20:37:32.096Z,13.62
2022-09-15T20:40:37.372Z,13.29
2022-09-15T20:43:12.112Z,13.29
2022-09-15T20:45:46.986Z,13.21
2022-09-15T20:48:27.935Z,13.16
2022-09-15T20:51:08.393Z,13.16
2022-09-15T20:53:47.953Z,13.44
2022-09-15T20:56:23.493Z,13.38
2022-09-15T20:58:56.292Z,13.51
2022-09-15T21:01:32.185Z,13.15
2022-09-15T21:04:04.313Z,13.09
2022-09-15T21:06:36.879Z,13.22
2022-09-15T21:09:11.674Z,13.28
2022-09-15T21:11:43.809Z,13.52
2022-09-15T21:14:16.555Z,13.03
2022-09-15T21:16:48.781Z,12.99
2022-09-15T21:19:20.644Z,13.15
2022-09-15T21:21:52.903Z,13.14
2022-09-15T21:24:27.475Z,13.50
2022-09-15T21:27:11.775Z,13.00
2022-09-15T21:29:43.591Z,13.32
2022-09-15T21:32:16.382Z,13.08
2022-09-15T21:34:48.594Z,13.28
2022-09-15T21:37:20.692Z,13.35
2022-09-15T21:39:55.310Z,13.56
2022-09-15T21:42:28.752Z,13.36
2022-09-15T21:45:00.652Z,13.24
2022-09-15T21:47:34.319Z,13.33
2022-09-15T21:50:06.439Z,13.28
2022-09-15T21:52:38.478Z,13.29
2022-09-15T21:55:13.358Z,12.93
2022-09-15T21:57:45.420Z,12.99
2022-09-15T22:00:18.379Z,12.69
2022-09-15T22:02:54.618Z,12.76
2022-09-15T22:05:26.480Z,12.94
2022-09-15T22:08:01.578Z,12.64
2022-09-15T22:10:39.618Z,12.70
2022-09-15T22:13:14.099Z,12.74
2022-09-15T22:15:45.900Z,12.59
2022-09-15T22:18:18.019Z,12.47
2022-09-15T22:20:49.563Z,12.71
2022-09-15T22:23:21.359Z,12.44
2022-09-15T22:25:55.538Z,12.46
2022-09-15T22:28:27.378Z,12.37
2022-09-15T22:31:03.307Z,12.51
2022-09-15T22:33:35.340Z,12.62
2022-09-15T22:36:06.983Z,12.51
2022-09-15T22:38:39.439Z,12.66
2022-09-15T22:41:28.278Z,12.46
2022-09-15T22:44:00.148Z,12.68
2022-09-15T22:46:31.819Z,12.24
2022-09-15T22:49:03.560Z,12.49
2022-09-15T22:51:35.195Z,12.70
2022-09-15T22:54:07.280Z,12.51
2022-09-15T22:56:41.407Z,12.69
2022-09-15T22:59:13.899Z,12.68
2022-09-15T23:01:45.741Z,12.81
2022-09-15T23:04:17.638Z,12.67
2022-09-15T23:06:49.326Z,12.30
2022-09-15T23:09:21.561Z,12.14
2022-09-15T23:11:55.718Z,12.20
2022-09-15T23:14:27.561Z,12.22
2022-09-15T23:16:59.018Z,12.47
2022-09-15T23:19:30.781Z,12.51
2022-09-15T23:22:02.360Z,12.40
2022-09-15T23:24:34.061Z,12.20
2022-09-15T23:27:08.340Z,12.08
2022-09-15T23:29:39.993Z,12.36
2022-09-15T23:32:17.358Z,12.37
2022-09-15T23:34:49.358Z,12.15
2022-09-15T23:37:20.800Z,11.98
2022-09-15T23:39:52.624Z,12.13
2022-09-15T23:42:26.820Z,12.00
2022-09-15T23:44:58.599Z,12.10
2022-09-15T23:47:30.102Z,11.92
2022-09-15T23:50:01.900Z,12.05
2022-09-15T23:52:42.641Z,11.91
2022-09-15T23:55:14.419Z,11.85
2022-09-15T23:57:48.719Z,11.75
